createdAt,value
2023-12-03T00:02:23.111Z,7.20
2023-12-03T00:04:51.657Z,7.32
2023-12-03T00:07:18.676Z,7.43
2023-12-03T00:09:47.597Z,6.80
2023-12-03T00:12:14.700Z,7.45
2023-12-03T00:14:41.630Z,6.97
2023-12-03T00:17:08.919Z,7.25
2023-12-03T00:19:35.881Z,7.10
2023-12-03T00:22:02.874Z,7.57
2023-12-03T00:24:29.853Z,7.30
2023-12-03T00:26:57.333Z,7.80
2023-12-03T00:29:24.326Z,7.80
2023-12-03T00:31:53.700Z,7.93
2023-12-03T00:34:20.700Z,7.38
2023-12-03T00:36:47.730Z,7.40
2023-12-03T00:39:14.786Z,7.57
2023-12-03T00:41:41.880Z,8.18
2023-12-03T00:44:08.812Z,8.13
2023-12-03T00:46:35.847Z,6.80
2023-12-03T00:49:02.869Z,8.10
2023-12-03T00:51:29.897Z,8.30
2023-12-03T00:53:56.935Z,8.98
2023-12-03T00:56:23.883Z,8.55
2023-12-03T00:58:50.790Z,7.93
2023-12-03T01:01:18.267Z,8.65
2023-12-03T01:03:45.527Z,8.85
2023-12-03T01:06:13.055Z,7.90
2023-12-03T01:08:40.499Z,7.93
2023-12-03T01:11:08.181Z,8.15
2023-12-03T01:13:35.474Z,8.95
2023-12-03T01:16:03.429Z,8.95
2023-12-03T01:18:31.008Z,8.45
2023-12-03T01:20:58.523Z,8.60
2023-12-03T01:23:25.855Z,8.50
2023-12-03T01:25:53.359Z,7.90
2023-12-03T01:28:21.950Z,8.27
2023-12-03T01:30:49.338Z,8.45
2023-12-03T01:33:16.773Z,8.45
2023-12-03T01:35:43.999Z,7.68
2023-12-03T01:38:11.135Z,8.50
2023-12-03T01:40:38.309Z,8.25
2023-12-03T01:43:06.106Z,8.38
2023-12-03T01:45:33.616Z,8.25
2023-12-03T01:48:01.238Z,8.20
2023-12-03T01:50:28.952Z,8.88
2023-12-03T01:52:56.313Z,8.13
2023-12-03T01:55:23.809Z,8.15
2023-12-03T01:57:51.725Z,8.10
2023-12-03T02:00:19.288Z,9.07
2023-12-03T02:02:46.941Z,8.23
2023-12-03T02:05:14.531Z,8.50
2023-12-03T02:07:42.428Z,7.78
2023-12-03T02:10:10.140Z,8.70
2023-12-03T02:12:37.329Z,8.07
2023-12-03T02:15:04.839Z,7.82
2023-12-03T02:17:32.355Z,8.40
2023-12-03T02:19:59.812Z,7.10
2023-12-03T02:22:26.901Z,8.60
2023-12-03T02:24:53.974Z,7.63
2023-12-03T02:27:21.133Z,7.93
2023-12-03T02:29:49.225Z,8.07
2023-12-03T02:32:16.163Z,7.60
2023-12-03T02:34:43.186Z,7.50
2023-12-03T02:37:10.272Z,7.95
2023-12-03T02:39:37.169Z,7.43
2023-12-03T02:42:04.374Z,8.80
2023-12-03T02:44:31.272Z,6.60
2023-12-03T02:46:58.366Z,6.47
2023-12-03T02:49:25.439Z,5.47
2023-12-03T02:51:52.491Z,4.88
2023-12-03T02:54:19.413Z,4.72
2023-12-03T02:56:46.946Z,4.32
2023-12-03T02:59:13.907Z,4.65
2023-12-03T03:01:41.037Z,4.07
2023-12-03T03:04:08.026Z,4.50
2023-12-03T03:06:35.081Z,4.05
2023-12-03T03:09:02.043Z,3.90
2023-12-03T03:11:29.039Z,4.10
2023-12-03T03:13:55.907Z,3.90
2023-12-03T03:16:25.888Z,3.70
2023-12-03T03:18:53.062Z,3.95
2023-12-03T03:21:20.020Z,3.60
2023-12-03T03:23:47.012Z,3.47
2023-12-03T03:26:13.884Z,3.72
2023-12-03T03:28:41.090Z,3.78
2023-12-03T03:31:08.241Z,3.53
2023-12-03T03:33:35.310Z,4.07
2023-12-03T03:36:02.237Z,3.67
2023-12-03T03:38:29.192Z,3.85
2023-12-03T03:40:56.120Z,3.75
2023-12-03T03:43:22.989Z,3.72
2023-12-03T03:45:50.318Z,4.32
2023-12-03T03:48:17.377Z,4.20
2023-12-03T03:50:44.255Z,3.90
2023-12-03T03:53:11.201Z,3.90
2023-12-03T03:55:38.211Z,3.80
2023-12-03T03:58:05.165Z,3.80
2023-12-03T04:00:32.172Z,3.55
2023-12-03T04:02:59.130Z,3.90
2023-12-03T04:05:26.487Z,3.60
2023-12-03T04:07:53.488Z,4.13
2023-12-03T04:10:20.721Z,3.50
2023-12-03T04:12:49.065Z,3.63
2023-12-03T04:15:16.313Z,3.63
2023-12-03T04:17:44.480Z,3.38
2023-12-03T04:20:12.045Z,3.83
2023-12-03T04:22:39.573Z,4.00
2023-12-03T04:25:07.792Z,3.90
2023-12-03T04:27:34.784Z,3.53
2023-12-03T04:30:01.891Z,3.58
2023-12-03T04:32:28.884Z,3.65
2023-12-03T04:34:55.935Z,4.30
2023-12-03T04:37:22.942Z,3.60
2023-12-03T04:39:49.890Z,3.45
2023-12-03T04:42:17.121Z,3.47
2023-12-03T04:44:44.202Z,4.35
2023-12-03T04:47:13.249Z,3.85
2023-12-03T04:49:40.246Z,3.83
2023-12-03T04:52:07.260Z,3.70
2023-12-03T04:54:34.224Z,4.00
2023-12-03T04:57:01.244Z,3.60
2023-12-03T04:59:28.179Z,3.72
2023-12-03T05:01:55.185Z,3.42
2023-12-03T05:04:24.750Z,3.80
2023-12-03T05:06:52.011Z,3.45
2023-12-03T05:09:18.979Z,3.83
2023-12-03T05:11:46.306Z,3.85
2023-12-03T05:14:13.251Z,4.43
2023-12-03T05:16:40.182Z,4.00
2023-12-03T05:19:07.287Z,4.05
2023-12-03T05:21:34.435Z,3.83
2023-12-03T05:24:01.327Z,4.35
2023-12-03T05:26:28.262Z,4.13
2023-12-03T05:28:55.230Z,4.75
2023-12-03T05:31:22.163Z,4.05
2023-12-03T05:33:49.269Z,4.35
2023-12-03T05:36:24.119Z,4.03
2023-12-03T05:38:54.696Z,4.35
2023-12-03T05:41:21.690Z,4.55
2023-12-03T05:43:50.120Z,5.38
2023-12-03T05:46:17.075Z,4.80
2023-12-03T05:48:44.461Z,4.75
2023-12-03T05:51:11.985Z,5.03
2023-12-03T05:53:39.004Z,4.85
2023-12-03T05:56:06.574Z,4.82
2023-12-03T05:58:33.488Z,4.95
2023-12-03T06:01:00.636Z,4.75
2023-12-03T06:03:27.602Z,4.65
2023-12-03T06:05:54.702Z,4.65
2023-12-03T06:08:21.598Z,4.95
2023-12-03T06:10:48.692Z,5.00
2023-12-03T06:13:15.630Z,5.35
2023-12-03T06:15:42.709Z,4.60
2023-12-03T06:18:10.627Z,5.22
2023-12-03T06:20:37.613Z,4.95
2023-12-03T06:23:04.735Z,4.80
2023-12-03T06:25:31.701Z,4.75
2023-12-03T06:27:58.649Z,4.40
2023-12-03T06:30:25.579Z,4.82
2023-12-03T06:32:52.599Z,5.25
2023-12-03T06:35:19.562Z,4.57
2023-12-03T06:37:46.767Z,4.20
2023-12-03T06:40:15.531Z,4.57
2023-12-03T06:42:42.571Z,4.97
2023-12-03T06:45:09.979Z,4.20
2023-12-03T06:47:36.899Z,4.50
2023-12-03T06:50:04.165Z,4.40
2023-12-03T06:52:31.094Z,4.78
2023-12-03T06:54:58.048Z,4.80
2023-12-03T06:57:25.110Z,4.68
2023-12-03T06:59:52.086Z,4.55
2023-12-03T07:02:22.063Z,4.80
2023-12-03T07:04:49.092Z,4.68
2023-12-03T07:07:16.111Z,4.40
2023-12-03T07:09:43.063Z,4.15
2023-12-03T07:12:10.158Z,4.60
2023-12-03T07:14:37.137Z,4.05
2023-12-03T07:17:04.314Z,4.53
2023-12-03T07:19:31.376Z,4.90
2023-12-03T07:21:58.580Z,4.75
2023-12-03T07:24:25.617Z,5.15
2023-12-03T07:26:52.590Z,4.82
2023-12-03T07:29:20.099Z,4.88
2023-12-03T07:31:47.063Z,5.00
2023-12-03T07:34:14.237Z,5.40
2023-12-03T07:36:41.322Z,5.10
2023-12-03T07:39:09.106Z,6.32
2023-12-03T07:41:36.036Z,5.80
2023-12-03T07:44:03.356Z,6.07
2023-12-03T07:46:30.313Z,5.60
2023-12-03T07:48:57.547Z,5.47
2023-12-03T07:51:24.519Z,5.85
2023-12-03T07:53:51.593Z,5.60
2023-12-03T07:56:18.955Z,5.70
2023-12-03T07:58:45.950Z,5.72
2023-12-03T08:01:12.933Z,5.95
2023-12-03T08:03:39.913Z,6.18
2023-12-03T08:06:07.191Z,5.53
2023-12-03T08:08:34.117Z,5.85
2023-12-03T08:11:01.336Z,5.57
2023-12-03T08:13:28.470Z,5.57
2023-12-03T08:15:55.446Z,6.10
2023-12-03T08:18:23.107Z,6.35
2023-12-03T08:20:50.183Z,5.47
2023-12-03T08:23:17.130Z,6.45
2023-12-03T08:25:44.211Z,5.93
2023-12-03T08:28:11.310Z,6.00
2023-12-03T08:30:40.123Z,5.72
2023-12-03T08:33:07.311Z,5.70
2023-12-03T08:35:34.397Z,6.43
2023-12-03T08:38:01.426Z,6.25
2023-12-03T08:40:28.387Z,6.07
2023-12-03T08:42:55.385Z,6.30
2023-12-03T08:45:22.394Z,6.40
2023-12-03T08:47:49.501Z,6.72
2023-12-03T08:50:16.517Z,5.80
2023-12-03T08:52:43.561Z,6.35
2023-12-03T08:55:10.503Z,6.85
2023-12-03T08:57:37.867Z,6.43
2023-12-03T09:00:09.512Z,6.78
2023-12-03T09:02:37.083Z,6.93
2023-12-03T09:05:05.251Z,7.20
2023-12-03T09:07:32.462Z,7.35
2023-12-03T09:09:59.626Z,6.75
2023-12-03T09:12:26.657Z,7.47
2023-12-03T09:14:53.587Z,6.80
2023-12-03T09:17:20.869Z,6.78
2023-12-03T09:19:47.858Z,7.15
2023-12-03T09:22:14.849Z,7.38
2023-12-03T09:24:41.920Z,7.43
2023-12-03T09:27:09.155Z,7.88
2023-12-03T09:29:37.363Z,8.18
2023-12-03T09:32:07.532Z,8.50
2023-12-03T09:34:34.609Z,7.97
2023-12-03T09:37:02.734Z,8.52
2023-12-03T09:39:30.277Z,8.68
2023-12-03T09:41:57.354Z,8.90
2023-12-03T09:44:45.820Z,8.95
2023-12-03T09:47:13.586Z,10.75
2023-12-03T09:49:40.534Z,10.13
2023-12-03T09:52:09.013Z,11.75
2023-12-03T09:54:35.996Z,12.23
2023-12-03T09:57:03.724Z,14.50
2023-12-03T09:59:30.818Z,12.15
2023-12-03T10:01:57.981Z,10.27
2023-12-03T10:04:25.121Z,9.68
2023-12-03T10:06:52.145Z,9.60
2023-12-03T10:09:19.121Z,8.98
2023-12-03T10:11:51.452Z,10.05
2023-12-03T10:14:18.499Z,9.00
2023-12-03T10:16:52.162Z,8.80
2023-12-03T10:19:28.785Z,9.50
2023-12-03T10:21:57.035Z,8.88
2023-12-03T10:24:24.078Z,8.73
2023-12-03T10:26:56.929Z,9.35
2023-12-03T10:29:27.790Z,7.60
2023-12-03T10:31:55.017Z,8.18
2023-12-03T10:34:22.770Z,8.27
2023-12-03T10:36:51.241Z,7.95
2023-12-03T10:39:19.129Z,7.95
2023-12-03T10:41:47.286Z,6.82
2023-12-03T10:44:19.896Z,6.78
2023-12-03T10:46:46.954Z,6.55
2023-12-03T10:49:14.085Z,6.35
2023-12-03T10:51:42.526Z,6.75
2023-12-03T10:54:12.477Z,6.85
2023-12-03T10:56:39.533Z,6.30
2023-12-03T10:59:12.803Z,6.20
2023-12-03T11:01:42.260Z,5.78
2023-12-03T11:04:25.534Z,5.80
2023-12-03T11:06:54.130Z,6.43
2023-12-03T11:09:21.390Z,6.10
2023-12-03T11:11:48.365Z,7.47
2023-12-03T11:14:16.560Z,6.50
2023-12-03T11:17:05.701Z,5.68
2023-12-03T11:19:39.628Z,6.88
2023-12-03T11:22:25.513Z,6.05
2023-12-03T11:24:59.771Z,5.65
2023-12-03T11:27:27.476Z,4.85
2023-12-03T11:29:56.313Z,4.75
2023-12-03T11:32:30.667Z,9.43
2023-12-03T11:35:03.711Z,5.80
2023-12-03T11:37:31.321Z,5.13
2023-12-03T11:40:14.879Z,4.25
2023-12-03T11:42:49.480Z,4.18
2023-12-03T11:45:25.249Z,4.40
2023-12-03T11:48:07.433Z,4.28
2023-12-03T11:50:43.830Z,4.30
2023-12-03T11:53:13.353Z,4.82
2023-12-03T11:55:42.090Z,3.78
2023-12-03T11:58:09.366Z,3.53
2023-12-03T12:00:37.149Z,3.15
2023-12-03T12:03:05.316Z,2.72
2023-12-03T12:05:32.682Z,2.70
2023-12-03T12:08:04.591Z,2.63
2023-12-03T12:10:35.719Z,3.10
2023-12-03T12:13:03.582Z,3.15
2023-12-03T12:15:30.698Z,2.70
2023-12-03T12:17:58.621Z,3.13
2023-12-03T12:20:32.327Z,2.95
2023-12-03T12:22:59.383Z,2.97
2023-12-03T12:25:27.802Z,2.80
2023-12-03T12:27:55.176Z,3.10
2023-12-03T12:30:34.239Z,3.05
2023-12-03T12:33:06.022Z,3.00
2023-12-03T12:35:34.768Z,2.80
2023-12-03T12:38:08.779Z,2.75
2023-12-03T12:40:40.850Z,2.53
2023-12-03T12:43:12.608Z,2.90
2023-12-03T12:45:40.389Z,3.00
2023-12-03T12:48:23.732Z,2.70
2023-12-03T12:50:51.541Z,2.40
2023-12-03T12:53:19.012Z,2.60
2023-12-03T12:55:46.330Z,2.47
2023-12-03T12:58:13.454Z,2.63
2023-12-03T13:00:40.450Z,2.72
2023-12-03T13:03:07.457Z,2.72
2023-12-03T13:05:35.627Z,2.60
2023-12-03T13:08:02.597Z,2.50
2023-12-03T13:10:29.639Z,2.80
2023-12-03T13:12:56.898Z,2.58
2023-12-03T13:15:24.519Z,2.90
2023-12-03T13:17:55.776Z,2.70
2023-12-03T13:20:23.735Z,2.78
2023-12-03T13:22:51.366Z,2.78
2023-12-03T13:25:18.583Z,3.17
2023-12-03T13:27:46.102Z,2.92
2023-12-03T13:30:13.366Z,3.30
2023-12-03T13:32:41.775Z,2.83
2023-12-03T13:35:15.378Z,2.80
2023-12-03T13:37:45.073Z,3.00
2023-12-03T13:40:12.536Z,3.28
2023-12-03T13:42:42.329Z,3.60
2023-12-03T13:45:09.522Z,3.75
2023-12-03T13:47:37.454Z,3.25
2023-12-03T13:50:04.853Z,3.38
2023-12-03T13:52:31.813Z,3.88
2023-12-03T13:55:00.210Z,3.17
2023-12-03T13:57:28.014Z,2.80
2023-12-03T13:59:55.070Z,3.42
2023-12-03T14:02:32.163Z,3.10
2023-12-03T14:05:16.674Z,3.08
2023-12-03T14:07:48.207Z,2.60
2023-12-03T14:10:15.732Z,2.80
2023-12-03T14:12:42.866Z,3.28
2023-12-03T14:15:11.864Z,3.35
2023-12-03T14:17:39.022Z,3.10
2023-12-03T14:20:06.902Z,2.83
2023-12-03T14:22:34.025Z,2.72
2023-12-03T14:25:03.555Z,3.33
2023-12-03T14:27:30.598Z,2.60
2023-12-03T14:29:57.558Z,2.72
2023-12-03T14:32:24.582Z,2.80
2023-12-03T14:34:51.745Z,2.60
2023-12-03T14:37:18.805Z,2.30
2023-12-03T14:39:45.878Z,2.40
2023-12-03T14:42:13.117Z,2.30
2023-12-03T14:44:41.527Z,2.20
2023-12-03T14:47:08.544Z,2.65
2023-12-03T14:49:35.684Z,2.30
2023-12-03T14:52:02.742Z,2.10
2023-12-03T14:54:29.745Z,2.60
2023-12-03T14:56:57.238Z,2.20
2023-12-03T14:59:24.209Z,2.60
2023-12-03T15:01:51.838Z,2.63
2023-12-03T15:04:19.774Z,2.90
2023-12-03T15:06:46.918Z,2.60
2023-12-03T15:09:13.895Z,2.50
2023-12-03T15:11:43.202Z,2.20
2023-12-03T15:14:11.560Z,2.42
2023-12-03T15:16:38.523Z,2.70
2023-12-03T15:19:05.595Z,2.60
2023-12-03T15:21:34.639Z,2.90
2023-12-03T15:24:01.592Z,3.22
2023-12-03T15:26:28.520Z,2.80
2023-12-03T15:28:55.614Z,2.95
2023-12-03T15:31:22.616Z,2.45
2023-12-03T15:33:49.741Z,2.70
2023-12-03T15:36:16.833Z,2.40
2023-12-03T15:38:43.855Z,2.25
2023-12-03T15:41:10.870Z,2.67
2023-12-03T15:43:43.996Z,2.80
2023-12-03T15:46:14.760Z,2.67
2023-12-03T15:48:41.929Z,3.05
2023-12-03T15:51:09.779Z,2.47
2023-12-03T15:53:36.734Z,2.75
2023-12-03T15:56:04.151Z,2.85
2023-12-03T15:58:31.310Z,2.65
2023-12-03T16:00:58.608Z,2.92
2023-12-03T16:03:25.760Z,2.90
2023-12-03T16:05:52.799Z,2.83
2023-12-03T16:08:19.756Z,2.70
2023-12-03T16:10:46.988Z,2.50
2023-12-03T16:13:14.068Z,2.85
2023-12-03T16:15:41.211Z,2.75
2023-12-03T16:18:09.748Z,3.10
2023-12-03T16:20:36.999Z,2.72
2023-12-03T16:23:05.544Z,2.50
2023-12-03T16:25:32.839Z,2.72
2023-12-03T16:27:59.959Z,2.33
2023-12-03T16:30:26.952Z,3.28
2023-12-03T16:32:54.670Z,3.08
2023-12-03T16:35:23.809Z,2.78
2023-12-03T16:37:51.545Z,2.63
2023-12-03T16:40:28.349Z,2.60
2023-12-03T16:42:55.427Z,2.70
2023-12-03T16:45:22.496Z,2.17
2023-12-03T16:47:49.631Z,5.00
2023-12-03T16:50:16.661Z,4.78
2023-12-03T16:52:43.994Z,4.63
2023-12-03T16:55:11.183Z,4.30
2023-12-03T16:57:38.519Z,3.95
2023-12-03T17:00:08.501Z,4.15
2023-12-03T17:02:35.477Z,3.85
2023-12-03T17:05:02.998Z,4.75
2023-12-03T17:07:30.127Z,3.90
2023-12-03T17:09:57.890Z,4.20
2023-12-03T17:12:24.959Z,4.65
2023-12-03T17:14:52.375Z,4.80
2023-12-03T17:17:19.318Z,5.03
2023-12-03T17:19:46.940Z,5.00
2023-12-03T17:22:13.971Z,5.00
2023-12-03T17:24:41.863Z,5.03
2023-12-03T17:27:08.829Z,4.65
2023-12-03T17:29:35.821Z,4.22
2023-12-03T17:32:02.930Z,4.40
2023-12-03T17:34:30.163Z,4.80
2023-12-03T17:36:57.260Z,6.13
2023-12-03T17:39:24.581Z,6.90
2023-12-03T17:41:52.241Z,6.82
2023-12-03T17:44:19.268Z,4.93
2023-12-03T17:46:46.186Z,4.93
2023-12-03T17:49:13.447Z,4.75
2023-12-03T17:51:40.519Z,4.70
2023-12-03T17:54:07.641Z,4.70
2023-12-03T17:56:34.607Z,4.78
2023-12-03T17:59:01.703Z,4.78
2023-12-03T18:01:28.744Z,4.93
2023-12-03T18:03:56.582Z,4.55
2023-12-03T18:06:24.243Z,5.07
2023-12-03T18:08:51.700Z,4.97
2023-12-03T18:11:19.126Z,5.55
2023-12-03T18:13:46.525Z,5.10
2023-12-03T18:16:13.751Z,5.22
2023-12-03T18:18:40.823Z,5.10
2023-12-03T18:21:08.053Z,5.97
2023-12-03T18:23:36.460Z,5.10
2023-12-03T18:26:03.586Z,5.00
2023-12-03T18:28:30.637Z,5.25
2023-12-03T18:30:57.881Z,5.03
2023-12-03T18:33:25.533Z,5.18
2023-12-03T18:35:53.302Z,5.22
2023-12-03T18:38:20.380Z,4.82
2023-12-03T18:40:51.180Z,5.07
2023-12-03T18:43:18.735Z,5.13
2023-12-03T18:45:46.389Z,4.90
2023-12-03T18:48:14.302Z,5.45
2023-12-03T18:50:41.519Z,5.50
2023-12-03T18:53:10.569Z,5.28
2023-12-03T18:55:38.038Z,6.15
2023-12-03T18:58:05.082Z,6.65
2023-12-03T19:00:32.172Z,7.28
2023-12-03T19:02:59.215Z,7.75
2023-12-03T19:05:26.196Z,7.60
2023-12-03T19:08:00.409Z,7.85
2023-12-03T19:10:28.473Z,7.53
2023-12-03T19:12:59.859Z,8.13
2023-12-03T19:15:30.169Z,7.95
2023-12-03T19:17:57.384Z,8.45
2023-12-03T19:20:28.939Z,8.00
2023-12-03T19:23:00.094Z,8.67
2023-12-03T19:25:27.030Z,7.93
2023-12-03T19:27:54.370Z,7.78
2023-12-03T19:30:21.431Z,8.45
2023-12-03T19:32:48.408Z,8.60
2023-12-03T19:35:15.371Z,7.60
2023-12-03T19:37:42.341Z,8.18
2023-12-03T19:40:09.857Z,7.72
2023-12-03T19:42:37.187Z,7.78
2023-12-03T19:45:04.256Z,7.47
2023-12-03T19:47:32.263Z,7.43
2023-12-03T19:49:59.334Z,9.13
2023-12-03T19:52:26.484Z,8.52
2023-12-03T19:54:53.718Z,8.50
2023-12-03T19:57:20.707Z,8.65
2023-12-03T19:59:47.715Z,8.23
2023-12-03T20:02:14.676Z,8.90
2023-12-03T20:04:41.759Z,9.13
2023-12-03T20:07:08.766Z,8.32
2023-12-03T20:09:35.957Z,9.00
2023-12-03T20:12:03.065Z,9.23
2023-12-03T20:14:30.034Z,8.48
2023-12-03T20:16:57.778Z,8.23
2023-12-03T20:19:24.930Z,8.10
2023-12-03T20:21:51.957Z,7.82
2023-12-03T20:24:19.049Z,7.60
2023-12-03T20:26:46.070Z,7.80
2023-12-03T20:29:14.353Z,8.27
2023-12-03T20:31:41.277Z,8.23
2023-12-03T20:34:08.469Z,8.13
2023-12-03T20:36:37.235Z,7.38
2023-12-03T20:39:05.784Z,7.47
2023-12-03T20:41:32.980Z,7.70
2023-12-03T20:44:00.074Z,7.75
2023-12-03T20:46:27.022Z,7.53
2023-12-03T20:48:54.411Z,7.93
2023-12-03T20:51:21.991Z,8.77
2023-12-03T20:53:49.031Z,9.07
2023-12-03T20:56:15.988Z,9.30
2023-12-03T20:58:43.818Z,9.52
2023-12-03T21:01:13.715Z,9.32
2023-12-03T21:03:41.045Z,10.40
2023-12-03T21:06:10.744Z,9.50
2023-12-03T21:08:37.737Z,9.55
2023-12-03T21:11:05.096Z,10.02
2023-12-03T21:13:33.320Z,9.52
2023-12-03T21:16:03.301Z,10.13
2023-12-03T21:18:31.250Z,8.88
2023-12-03T21:20:58.385Z,8.63
2023-12-03T21:23:25.332Z,7.50
2023-12-03T21:25:52.436Z,8.13
2023-12-03T21:28:23.233Z,8.35
2023-12-03T21:30:50.959Z,8.13
2023-12-03T21:33:17.963Z,8.02
2023-12-03T21:35:45.020Z,7.53
2023-12-03T21:38:13.959Z,7.32
2023-12-03T21:40:43.359Z,7.47
2023-12-03T21:43:10.709Z,7.00
2023-12-03T21:45:37.921Z,6.70
2023-12-03T21:48:06.293Z,7.18
2023-12-03T21:50:33.504Z,7.25
2023-12-03T21:53:01.345Z,6.90
2023-12-03T21:55:28.528Z,7.05
2023-12-03T21:57:55.551Z,6.70
2023-12-03T22:00:22.809Z,6.93
2023-12-03T22:02:50.099Z,7.50
2023-12-03T22:05:17.294Z,7.22
2023-12-03T22:07:44.258Z,6.20
2023-12-03T22:10:12.579Z,5.78
2023-12-03T22:12:44.018Z,6.35
2023-12-03T22:15:11.626Z,5.50
2023-12-03T22:17:38.591Z,5.93
2023-12-03T22:20:06.224Z,5.35
2023-12-03T22:22:33.222Z,5.82
2023-12-03T22:25:00.444Z,5.68
2023-12-03T22:27:27.605Z,5.60
2023-12-03T22:30:03.245Z,5.18
2023-12-03T22:32:37.868Z,5.18
2023-12-03T22:35:05.238Z,5.15
2023-12-03T22:37:35.222Z,5.10
2023-12-03T22:40:02.813Z,5.32
2023-12-03T22:42:29.890Z,5.47
2023-12-03T22:44:57.871Z,4.82
2023-12-03T22:47:24.861Z,5.43
2023-12-03T22:49:52.419Z,3.97
2023-12-03T22:52:19.375Z,4.10
2023-12-03T22:54:48.885Z,4.50
2023-12-03T22:57:15.813Z,4.25
2023-12-03T22:59:44.441Z,4.05
2023-12-03T23:02:11.735Z,4.38
2023-12-03T23:04:38.881Z,4.60
2023-12-03T23:07:05.859Z,4.50
2023-12-03T23:09:35.521Z,4.97
2023-12-03T23:12:04.309Z,4.93
2023-12-03T23:14:31.185Z,5.10
2023-12-03T23:16:58.201Z,5.20
2023-12-03T23:19:25.195Z,5.28
2023-12-03T23:21:52.421Z,5.55
2023-12-03T23:24:19.354Z,5.15
2023-12-03T23:26:46.319Z,5.78
2023-12-03T23:29:13.215Z,5.50
2023-12-03T23:31:40.239Z,5.20
2023-12-03T23:34:07.270Z,5.68
2023-12-03T23:36:34.427Z,5.47
2023-12-03T23:39:01.512Z,5.32
2023-12-03T23:41:28.393Z,5.20
2023-12-03T23:43:55.356Z,5.55
2023-12-03T23:46:22.343Z,5.70
2023-12-03T23:48:49.442Z,5.45
2023-12-03T23:51:18.367Z,5.50
2023-12-03T23:53:45.769Z,5.65
2023-12-03T23:56:24.617Z,5.43
2023-12-03T23:58:52.073Z,5.90
